Time;durP1;ratioP1;P1;durP2;ratioP2;P2;SDS_P1;SDS_P2;PMS_P1;PMS_P2;Temp;Humidity;BMP_temperature;BMP_pressure;BME280_temperature;BME280_humidity;BME280_pressure;Samples;Min_cycle;Max_cycle;Signal;HPM_P1;HPM_P2
2023/11/22 00:01:30;;;;;;;14.32;10.68;;;;;;;1.49;100.00;99121.75;15270380;19;20024;-49
2023/11/22 00:06:54;;;;;;;15.02;12.65;;;;;;;1.52;100.00;99121.59;15276496;19;20081;-52
2023/11/22 00:12:22;;;;;;;15.73;11.68;;;;;;;1.45;100.00;99109.59;15275866;19;20022;-50
2023/11/22 00:17:48;;;;;;;15.40;12.20;;;;;;;1.39;100.00;99131.19;15271397;19;20484;-49
2023/11/22 00:23:13;;;;;;;13.98;12.15;;;;;;;1.36;100.00;99128.69;15270839;19;20345;-53
2023/11/22 00:28:40;;;;;;;13.23;10.73;;;;;;;1.33;100.00;99135.03;15277221;19;20028;-48
2023/11/22 00:34:05;;;;;;;15.35;11.27;;;;;;;1.21;100.00;99133.94;15272280;19;20041;-52
2023/11/22 00:39:29;;;;;;;14.20;11.05;;;;;;;1.21;100.00;99133.94;15271386;19;20029;-53
2023/11/22 00:45:05;;;;;;;11.00;9.13;;;;;;;1.15;100.00;99146.66;15275219;19;20010;-53
2023/11/22 00:50:30;;;;;;;10.20;8.27;;;;;;;1.16;100.00;99166.97;15270828;19;20082;-52
2023/11/22 00:55:55;;;;;;;11.70;9.45;;;;;;;1.16;100.00;99182.91;15273375;19;20391;-51
2023/11/22 01:01:23;;;;;;;10.73;8.70;;;;;;;1.08;100.00;99184.16;15270535;19;20011;-49
2023/11/22 01:06:48;;;;;;;9.45;8.40;;;;;;;1.08;100.00;99192.09;15273940;19;21036;-52
2023/11/22 01:12:13;;;;;;;9.95;8.90;;;;;;;1.10;100.00;99194.69;15273894;19;20014;-49
2023/11/22 01:17:40;;;;;;;10.57;8.27;;;;;;;1.12;100.00;99190.13;15271027;19;20094;-50
2023/11/22 01:23:05;;;;;;;9.48;7.63;;;;;;;1.07;100.00;99184.25;15269822;19;20015;-52
2023/11/22 01:28:34;;;;;;;11.52;7.53;;;;;;;1.09;100.00;99203.59;15271790;19;20024;-49
2023/11/22 01:34:01;;;;;;;9.25;8.20;;;;;;;1.00;100.00;99183.72;15271549;19;20352;-51
2023/11/22 01:39:27;;;;;;;7.70;6.93;;;;;;;0.88;100.00;99187.84;15269832;19;20025;-50
2023/11/22 01:44:53;;;;;;;8.38;7.00;;;;;;;0.84;100.00;99191.63;15271310;19;20034;-50
2023/11/22 01:50:20;;;;;;;7.88;6.65;;;;;;;0.75;100.00;99197.41;15260532;19;20086;-48
2023/11/22 01:55:47;;;;;;;7.57;6.60;;;;;;;0.71;100.00;99207.31;15269820;19;20022;-51
2023/11/22 02:01:14;;;;;;;8.23;7.20;;;;;;;0.69;100.00;99221.59;15265037;19;20495;-52
2023/11/22 02:06:42;;;;;;;8.65;6.70;;;;;;;0.67;100.00;99234.06;15270091;19;20018;-50
2023/11/22 02:12:07;;;;;;;9.25;6.30;;;;;;;0.69;100.00;99226.91;15270232;19;20018;-50
2023/11/22 02:17:34;;;;;;;6.93;6.22;;;;;;;0.52;100.00;99217.16;15291286;19;20014;-51
2023/11/22 02:23:02;;;;;;;6.97;5.75;;;;;;;0.21;100.00;99201.00;15268262;19;20866;-54
2023/11/22 02:28:29;;;;;;;7.40;5.47;;;;;;;0.07;100.00;99216.72;15274235;19;20777;-54
2023/11/22 02:33:55;;;;;;;6.90;5.95;;;;;;;-0.04;100.00;99223.38;15267623;19;20014;-50
2023/11/22 02:39:19;;;;;;;8.57;6.28;;;;;;;-0.11;100.00;99237.00;15261317;19;20010;-52
2023/11/22 02:44:47;;;;;;;6.90;5.80;;;;;;;-0.18;100.00;99245.25;15262243;19;20018;-51
2023/11/22 02:50:13;;;;;;;8.23;6.20;;;;;;;-0.26;100.00;99238.59;15261532;19;20553;-50
2023/11/22 02:55:37;;;;;;;7.18;5.93;;;;;;;-0.33;100.00;99243.31;15259845;19;20019;-50
2023/11/22 03:01:04;;;;;;;8.02;6.32;;;;;;;-0.35;100.00;99247.81;15256811;19;20090;-49
2023/11/22 03:06:30;;;;;;;9.82;6.13;;;;;;;-0.38;100.00;99266.53;15249171;19;20483;-52
2023/11/22 03:11:57;;;;;;;6.82;6.00;;;;;;;-0.45;100.00;99271.25;15261446;19;20014;-52
2023/11/22 03:17:27;;;;;;;9.25;6.15;;;;;;;-0.47;100.00;99281.03;15262398;19;20534;-52
2023/11/22 03:22:52;;;;;;;7.97;6.50;;;;;;;-0.51;100.00;99288.25;15258677;19;20074;-53
2023/11/22 03:28:17;;;;;;;7.43;6.05;;;;;;;-0.51;100.00;99308.56;15260051;19;20022;-50
2023/11/22 03:33:45;;;;;;;8.65;6.47;;;;;;;-0.51;100.00;99319.16;15265422;19;20521;-52
2023/11/22 03:39:14;;;;;;;8.15;6.43;;;;;;;-0.53;100.00;99315.75;15274805;19;20014;-51
2023/11/22 03:44:46;;;;;;;9.13;7.13;;;;;;;-0.54;100.00;99319.31;15273726;19;20018;-51
2023/11/22 03:50:14;;;;;;;8.30;7.18;;;;;;;-0.53;100.00;99313.09;15270667;19;20022;-51
2023/11/22 03:55:39;;;;;;;9.23;7.55;;;;;;;-0.57;100.00;99335.31;15276274;19;20599;-53
2023/11/22 04:01:04;;;;;;;9.52;7.03;;;;;;;-0.63;100.00;99342.59;15264970;19;20015;-52
2023/11/22 04:06:33;;;;;;;8.05;6.53;;;;;;;-0.64;100.00;99335.59;15277001;19;20559;-51
2023/11/22 04:11:58;;;;;;;7.97;6.70;;;;;;;-0.64;100.00;99342.69;15274116;19;20074;-52
2023/11/22 04:17:22;;;;;;;8.00;6.72;;;;;;;-0.64;100.00;99351.47;15267490;19;20026;-50
2023/11/22 04:22:50;;;;;;;7.72;6.53;;;;;;;-0.66;100.00;99377.16;15272460;19;20321;-52
2023/11/22 04:28:15;;;;;;;7.72;6.38;;;;;;;-0.70;100.00;99377.31;15275824;19;20015;-51
2023/11/22 04:33:40;;;;;;;8.27;5.95;;;;;;;-0.73;100.00;99383.63;15270888;19;20014;-49
2023/11/22 04:39:10;;;;;;;5.95;4.88;;;;;;;-0.75;100.00;99381.97;15274920;19;20014;-51
2023/11/22 04:44:41;;;;;;;6.75;5.25;;;;;;;-0.79;100.00;99397.13;15269684;19;20018;-48
2023/11/22 04:50:13;;;;;;;6.75;5.70;;;;;;;-0.80;100.00;99400.69;15272524;19;20018;-49
2023/11/22 04:55:41;;;;;;;6.70;5.35;;;;;;;-0.82;100.00;99391.97;15273750;19;20101;-51
2023/11/22 05:01:10;;;;;;;7.40;5.68;;;;;;;-0.81;100.00;99407.75;15271602;19;20542;-49
2023/11/22 05:06:38;;;;;;;5.75;5.05;;;;;;;-0.85;100.00;99411.47;15269526;19;20087;-51
2023/11/22 05:12:06;;;;;;;6.28;5.22;;;;;;;-0.90;100.00;99437.25;15272886;19;20081;-49
2023/11/22 05:17:30;;;;;;;6.88;5.15;;;;;;;-0.91;100.00;99438.19;15274231;19;20065;-50
2023/11/22 05:22:55;;;;;;;6.90;5.57;;;;;;;-0.93;100.00;99453.25;15268943;19;20014;-53
2023/11/22 05:28:23;;;;;;;6.55;5.15;;;;;;;-0.95;100.00;99458.63;15272837;19;20019;-49
2023/11/22 05:33:48;;;;;;;6.07;5.25;;;;;;;-0.97;100.00;99447.22;15271017;19;20025;-49
2023/11/22 05:39:13;;;;;;;7.32;5.22;;;;;;;-1.01;100.00;99466.81;15260030;19;20019;-47
2023/11/22 05:44:47;;;;;;;6.38;5.28;;;;;;;-1.03;100.00;99473.06;15267910;19;20267;-51
2023/11/22 05:50:19;;;;;;;6.50;5.10;;;;;;;-1.16;100.00;99488.56;15266381;19;20035;-51
2023/11/22 05:55:44;;;;;;;5.78;5.18;;;;;;;-1.29;100.00;99493.47;15269213;19;20020;-49
2023/11/22 06:01:11;;;;;;;6.80;5.53;;;;;;;-1.38;100.00;99497.34;15265996;19;20015;-51
2023/11/22 06:06:37;;;;;;;7.38;5.90;;;;;;;-1.47;100.00;99492.44;15270865;19;20018;-50
2023/11/22 06:12:01;;;;;;;9.25;5.68;;;;;;;-1.53;100.00;99476.78;15264884;19;20018;-50
2023/11/22 06:17:29;;;;;;;8.00;5.57;;;;;;;-1.64;100.00;99480.69;15270066;19;20006;-48
2023/11/22 06:22:54;;;;;;;6.47;5.35;;;;;;;-1.72;100.00;99494.19;15267556;19;20021;-51
2023/11/22 06:28:20;;;;;;;6.60;5.55;;;;;;;-1.78;100.00;99494.44;15268230;19;20081;-50
2023/11/22 06:33:47;;;;;;;7.00;6.05;;;;;;;-1.81;100.00;99510.41;15269446;19;20022;-51
2023/11/22 06:39:13;;;;;;;8.68;6.32;;;;;;;-1.84;100.00;99517.56;15268193;19;20070;-50
2023/11/22 06:44:47;;;;;;;7.40;5.72;;;;;;;-1.84;100.00;99530.78;15260949;19;20534;-47
2023/11/22 06:50:15;;;;;;;8.25;6.22;;;;;;;-1.84;100.00;99549.28;15265545;19;20021;-48
2023/11/22 06:55:41;;;;;;;7.22;5.82;;;;;;;-1.87;100.00;99543.19;15269121;19;20025;-50
2023/11/22 07:01:07;;;;;;;9.02;6.65;;;;;;;-1.86;100.00;99558.13;15264294;19;20385;-49
2023/11/22 07:06:37;;;;;;;6.90;6.07;;;;;;;-1.90;100.00;99566.19;15267046;19;20011;-49
2023/11/22 07:12:05;;;;;;;7.15;6.13;;;;;;;-1.90;100.00;99571.47;15283521;19;20013;-50
2023/11/22 07:17:33;;;;;;;7.20;6.20;;;;;;;-1.91;100.00;99588.25;15276654;19;20061;-49
2023/11/22 07:23:00;;;;;;;7.90;6.20;;;;;;;-1.87;100.00;99595.13;15280474;19;20014;-49
2023/11/22 07:28:25;;;;;;;7.60;6.18;;;;;;;-1.78;100.00;99594.84;15280910;19;20018;-52
2023/11/22 07:33:51;;;;;;;6.20;5.60;;;;;;;-1.69;100.00;99593.63;15281027;19;20369;-50
2023/11/22 07:39:20;;;;;;;7.00;5.35;;;;;;;-1.67;100.00;99598.88;15278639;19;20074;-52
2023/11/22 07:44:55;;;;;;;6.72;5.25;;;;;;;-1.70;100.00;99626.25;15275520;19;20018;-51
2023/11/22 07:50:21;;;;;;;6.72;5.30;;;;;;;-1.76;100.00;99640.53;15276784;19;20117;-49
2023/11/22 07:55:49;;;;;;;6.85;5.57;;;;;;;-1.83;100.00;99640.81;15279981;19;20020;-49
2023/11/22 08:01:14;;;;;;;6.35;5.40;;;;;;;-1.76;100.00;99639.69;15276441;19;20026;-48
2023/11/22 08:06:39;;;;;;;6.47;5.40;;;;;;;-1.68;100.00;99650.00;15274054;19;20025;-50
2023/11/22 08:12:07;;;;;;;6.03;5.07;;;;;;;-1.72;100.00;99621.03;15277907;19;20016;-49
2023/11/22 08:17:32;;;;;;;7.07;5.85;;;;;;;-1.68;100.00;99627.06;15275610;19;20010;-49
2023/11/22 08:22:57;;;;;;;5.63;4.90;;;;;;;-1.61;100.00;99627.69;15273529;19;20018;-51
2023/11/22 08:28:25;;;;;;;5.80;5.05;;;;;;;-1.61;100.00;99620.66;15279023;19;20024;-48
2023/11/22 08:33:50;;;;;;;6.70;5.90;;;;;;;-1.50;100.00;99612.31;15275532;19;20013;-50
2023/11/22 08:39:16;;;;;;;7.07;5.22;;;;;;;-1.40;100.00;99615.50;15273898;19;20022;-50
2023/11/22 08:44:51;;;;;;;5.30;4.80;;;;;;;-1.32;100.00;99621.38;15269964;19;20486;-49
2023/11/22 08:50:16;;;;;;;5.47;4.80;;;;;;;-1.35;100.00;99610.88;15269279;19;20471;-49
2023/11/22 08:55:43;;;;;;;5.35;4.50;;;;;;;-1.28;100.00;99595.66;15270814;19;20021;-49
2023/11/22 09:01:10;;;;;;;5.55;4.95;;;;;;;-1.15;100.00;99593.44;15270312;19;20014;-48
2023/11/22 09:06:36;;;;;;;5.80;5.10;;;;;;;-1.09;100.00;99604.66;15270334;19;20015;-48
2023/11/22 09:12:01;;;;;;;5.88;5.20;;;;;;;-1.00;100.00;99624.56;15274350;19;20011;-49
2023/11/22 09:17:28;;;;;;;6.53;5.20;;;;;;;-0.95;100.00;99622.63;15274537;19;20085;-53
2023/11/22 09:22:54;;;;;;;8.07;4.97;;;;;;;-0.83;100.00;99641.59;15266898;19;20471;-50
2023/11/22 09:28:19;;;;;;;5.25;4.75;;;;;;;-0.72;100.00;99655.28;15276259;19;20031;-51
2023/11/22 09:33:47;;;;;;;5.68;5.00;;;;;;;-0.63;100.00;99654.06;15274514;19;20014;-51
2023/11/22 09:39:13;;;;;;;5.18;4.57;;;;;;;-0.55;100.00;99653.78;15311730;19;20017;-53
2023/11/22 09:44:38;;;;;;;5.85;4.75;;;;;;;-0.47;100.00;99643.72;15298755;19;20026;-51
2023/11/22 09:50:10;;;;;;;7.38;5.07;;;;;;;-0.34;100.00;99634.38;15276629;19;20011;-50
2023/11/22 09:55:35;;;;;;;5.25;4.55;;;;;;;-0.24;100.00;99634.00;15265933;19;20026;-51
2023/11/22 10:01:01;;;;;;;6.97;4.95;;;;;;;-0.19;100.00;99629.38;15267352;19;20003;-50
2023/11/22 10:06:33;;;;;;;6.13;4.85;;;;;;;-0.18;100.00;99624.00;15267545;19;20030;-51
2023/11/22 10:11:57;;;;;;;5.55;4.85;;;;;;;-0.18;100.00;99604.63;15270175;19;20018;-50
2023/11/22 10:17:22;;;;;;;5.75;5.00;;;;;;;-0.14;100.00;99605.34;15269710;19;20014;-49
2023/11/22 10:22:57;;;;;;;6.00;5.05;;;;;;;-0.06;100.00;99616.47;15267399;19;20019;-50
2023/11/22 10:28:23;;;;;;;6.03;5.05;;;;;;;-0.21;100.00;99623.28;15262696;19;20025;-51
2023/11/22 10:33:49;;;;;;;6.15;5.10;;;;;;;-0.32;100.00;99608.69;15267835;19;20028;-49
2023/11/22 10:39:16;;;;;;;6.57;4.40;;;;;;;-0.33;100.00;99620.22;15266732;19;20018;-50
2023/11/22 10:44:43;;;;;;;6.13;4.45;;;;;;;-0.40;100.00;99623.16;15273082;19;20018;-52
2023/11/22 10:50:10;;;;;;;8.32;4.75;;;;;;;-0.50;100.00;99622.66;15281526;19;20018;-49
2023/11/22 10:55:42;;;;;;;4.80;4.32;;;;;;;-0.49;100.00;99641.16;15282343;19;20018;-51
2023/11/22 11:01:09;;;;;;;5.30;4.63;;;;;;;-0.39;100.00;99660.16;15271343;19;20336;-49
2023/11/22 11:06:40;;;;;;;5.13;4.60;;;;;;;-0.38;100.00;99656.59;15277690;19;20078;-50
2023/11/22 11:12:10;;;;;;;4.75;4.32;;;;;;;-0.47;100.00;99686.09;15282728;19;20018;-50
2023/11/22 11:17:35;;;;;;;6.28;5.15;;;;;;;-0.59;100.00;99679.50;15282089;19;20026;-49
2023/11/22 11:23:00;;;;;;;5.35;4.45;;;;;;;-0.54;100.00;99659.00;15279788;19;20790;-53
2023/11/22 11:28:28;;;;;;;7.35;4.57;;;;;;;-0.48;100.00;99673.78;15280748;19;20827;-50
2023/11/22 11:33:58;;;;;;;5.05;4.43;;;;;;;-0.43;100.00;99681.53;15275206;19;20045;-49
2023/11/22 11:39:23;;;;;;;6.53;4.80;;;;;;;-0.37;100.00;99671.56;15277347;19;20078;-51
2023/11/22 11:45:07;;;;;;;4.93;4.30;;;;;;;-0.29;100.00;99678.34;15273222;19;20078;-49
2023/11/22 11:50:31;;;;;;;4.88;4.38;;;;;;;-0.23;100.00;99656.91;15275926;19;20035;-50
2023/11/22 11:55:56;;;;;;;5.47;4.63;;;;;;;-0.19;100.00;99637.34;15276627;19;20089;-52
2023/11/22 12:01:26;;;;;;;5.22;4.60;;;;;;;-0.22;100.00;99640.94;15270097;19;20042;-49
2023/11/22 12:06:53;;;;;;;4.55;4.15;;;;;;;-0.23;100.00;99651.63;15267441;19;20025;-52
2023/11/22 12:12:18;;;;;;;4.70;4.15;;;;;;;-0.30;100.00;99644.84;15277224;19;20010;-49
2023/11/22 12:17:45;;;;;;;4.93;4.18;;;;;;;-0.37;100.00;99641.59;15277447;19;20195;-51
2023/11/22 12:23:11;;;;;;;8.48;4.82;;;;;;;-0.48;100.00;99619.06;15274604;19;20383;-48
2023/11/22 12:28:37;;;;;;;7.13;4.60;;;;;;;-0.51;100.00;99615.66;15275946;19;20586;-48
2023/11/22 12:34:17;;;;;;;8.45;5.47;;;;;;;-0.57;100.00;99611.47;15274411;19;20015;-49
2023/11/22 12:39:43;;;;;;;6.10;5.50;;;;;;;-0.57;100.00;99579.69;15269067;19;20414;-49
2023/11/22 12:45:16;;;;;;;6.20;5.32;;;;;;;-0.55;100.00;99566.41;15269218;19;20029;-49
2023/11/22 12:50:43;;;;;;;7.55;5.72;;;;;;;-0.62;100.00;99549.91;15269440;19;20025;-50
2023/11/22 12:56:08;;;;;;;8.02;5.40;;;;;;;-0.59;100.00;99557.75;15273830;19;20381;-48
2023/11/22 13:01:34;;;;;;;7.53;6.32;;;;;;;-0.65;100.00;99529.72;15271509;19;20017;-50
2023/11/22 13:07:02;;;;;;;6.70;4.85;;;;;;;-0.67;100.00;99531.59;15270732;19;20018;-49
2023/11/22 13:12:28;;;;;;;6.20;5.60;;;;;;;-0.69;100.00;99528.13;15267912;19;20042;-52
2023/11/22 13:17:55;;;;;;;5.90;5.18;;;;;;;-0.67;100.00;99536.00;15273214;19;20471;-50
2023/11/22 13:23:22;;;;;;;5.55;4.95;;;;;;;-0.75;100.00;99591.88;15271197;19;20015;-50
2023/11/22 13:28:48;;;;;;;5.60;5.07;;;;;;;-0.74;100.00;99614.78;15271060;19;20094;-48
2023/11/22 13:34:14;;;;;;;5.60;5.10;;;;;;;-0.68;100.00;99593.38;15271871;19;20602;-50
2023/11/22 13:39:42;;;;;;;5.75;4.63;;;;;;;-0.68;100.00;99587.19;15268608;19;20041;-51
2023/11/22 13:45:16;;;;;;;6.50;4.60;;;;;;;-0.65;100.00;99600.31;15264737;19;20022;-51
2023/11/22 13:50:42;;;;;;;5.00;4.50;;;;;;;-0.69;100.00;99599.59;15265791;19;20022;-51
2023/11/22 13:56:10;;;;;;;5.03;4.30;;;;;;;-0.68;100.00;99597.78;15267869;19;20016;-51
2023/11/22 14:01:39;;;;;;;4.55;4.15;;;;;;;-0.74;100.00;99582.16;15267427;19;20022;-53
2023/11/22 14:07:06;;;;;;;5.25;4.75;;;;;;;-0.79;100.00;99569.97;15268090;19;20475;-52
2023/11/22 14:12:35;;;;;;;5.32;4.78;;;;;;;-0.87;100.00;99566.78;15265531;19;20020;-50
2023/11/22 14:18:00;;;;;;;5.25;4.75;;;;;;;-0.89;100.00;99558.03;15260130;19;20018;-54
2023/11/22 14:23:25;;;;;;;5.65;4.80;;;;;;;-0.95;100.00;99553.00;15264393;19;20420;-51
2023/11/22 14:28:52;;;;;;;6.07;5.20;;;;;;;-0.97;100.00;99539.81;15265625;19;20019;-52
2023/11/22 14:34:17;;;;;;;9.07;4.72;;;;;;;-0.93;100.00;99528.19;15267151;19;20481;-52
2023/11/22 14:39:41;;;;;;;5.15;4.57;;;;;;;-0.89;100.00;99520.16;15264940;19;20026;-50
2023/11/22 14:45:16;;;;;;;6.93;4.90;;;;;;;-0.88;100.00;99528.00;15259516;19;20054;-49
2023/11/22 14:50:41;;;;;;;5.80;5.18;;;;;;;-0.84;100.00;99558.72;15265060;19;20015;-51
2023/11/22 14:56:07;;;;;;;6.45;5.10;;;;;;;-0.83;100.00;99560.47;15267041;19;20010;-48
2023/11/22 15:01:35;;;;;;;4.85;4.32;;;;;;;-0.83;100.00;99562.22;15262136;19;20090;-49
2023/11/22 15:06:59;;;;;;;5.45;4.95;;;;;;;-0.86;100.00;99589.66;15262901;19;20498;-52
2023/11/22 15:12:24;;;;;;;5.47;4.95;;;;;;;-0.87;100.00;99602.94;15261976;19;20018;-48
2023/11/22 15:17:52;;;;;;;5.65;4.95;;;;;;;-0.90;100.00;99606.56;15260052;19;20022;-48
2023/11/22 15:23:17;;;;;;;5.70;5.20;;;;;;;-0.90;100.00;99605.72;15265012;19;20057;-51
2023/11/22 15:28:42;;;;;;;5.90;5.30;;;;;;;-0.89;100.00;99583.66;15264268;19;20640;-49
2023/11/22 15:34:11;;;;;;;6.30;5.13;;;;;;;-0.88;100.00;99556.28;15279316;19;20018;-50
2023/11/22 15:39:36;;;;;;;7.40;6.10;;;;;;;-0.88;100.00;99553.63;15276938;19;20011;-49
2023/11/22 15:45:01;;;;;;;6.05;5.25;;;;;;;-0.86;100.00;99564.97;15272632;19;20019;-49
2023/11/22 15:50:30;;;;;;;7.55;5.15;;;;;;;-0.89;100.00;99575.72;15265360;19;20313;-48
2023/11/22 15:55:55;;;;;;;5.72;5.00;;;;;;;-0.91;100.00;99590.78;15274862;19;20367;-54
2023/11/22 16:01:20;;;;;;;5.53;4.70;;;;;;;-0.75;100.00;99599.81;15273500;19;20015;-53
2023/11/22 16:06:50;;;;;;;8.63;7.63;;;;;;;-0.82;100.00;99590.41;15267079;19;21001;-52
2023/11/22 16:12:19;;;;;;;12.13;10.10;;;;;;;-0.89;100.00;99581.84;15267609;19;20014;-49
2023/11/22 16:17:44;;;;;;;9.40;7.60;;;;;;;-0.94;100.00;99586.44;15266793;19;20015;-49
2023/11/22 16:23:11;;;;;;;6.90;5.80;;;;;;;-0.99;100.00;99597.22;15259157;19;20046;-54
2023/11/22 16:28:36;;;;;;;6.95;6.25;;;;;;;-1.04;100.00;99590.38;15264027;19;20015;-50
2023/11/22 16:34:02;;;;;;;6.93;6.25;;;;;;;-1.04;100.00;99580.66;15264276;19;20032;-52
2023/11/22 16:39:30;;;;;;;9.02;8.10;;;;;;;-1.02;100.00;99583.25;15259928;19;20015;-50
2023/11/22 16:45:01;;;;;;;8.57;5.78;;;;;;;-1.03;100.00;99585.03;15262458;19;20018;-50
2023/11/22 16:50:26;;;;;;;6.07;5.40;;;;;;;-1.02;100.00;99572.66;15263494;19;20022;-49
2023/11/22 16:55:55;;;;;;;7.93;6.90;;;;;;;-1.01;100.00;99585.84;15261473;19;20817;-49
2023/11/22 17:01:20;;;;;;;7.10;6.40;;;;;;;-0.99;100.00;99578.69;15262647;19;20097;-50
2023/11/22 17:06:45;;;;;;;9.18;6.80;;;;;;;-0.99;100.00;99570.75;15264023;19;20028;-49
2023/11/22 17:12:12;;;;;;;7.47;6.53;;;;;;;-1.00;100.00;99574.31;15264040;19;20476;-51
2023/11/22 17:17:37;;;;;;;8.57;6.40;;;;;;;-0.98;100.00;99574.28;15267143;19;20018;-49
2023/11/22 17:23:02;;;;;;;7.35;6.55;;;;;;;-0.97;100.00;99560.97;15262229;19;20032;-49
2023/11/22 17:28:30;;;;;;;8.70;6.10;;;;;;;-0.97;100.00;99555.69;15253582;19;20029;-50
2023/11/22 17:33:55;;;;;;;7.05;6.35;;;;;;;-0.98;100.00;99561.91;15264305;19;20006;-51
2023/11/22 17:39:20;;;;;;;7.68;6.88;;;;;;;-0.99;100.00;99541.66;15243518;19;20024;-52
2023/11/22 17:44:50;;;;;;;7.88;6.63;;;;;;;-1.00;100.00;99545.22;15279208;19;20030;-52
2023/11/22 17:50:17;;;;;;;7.50;6.45;;;;;;;-1.02;100.00;99546.22;15268518;19;20029;-52
2023/11/22 17:55:42;;;;;;;6.75;6.05;;;;;;;-1.07;100.00;99534.97;15259501;19;20031;-53
2023/11/22 18:01:10;;;;;;;7.13;6.22;;;;;;;-1.13;100.00;99520.19;15254718;19;20019;-52
2023/11/22 18:06:35;;;;;;;7.13;6.32;;;;;;;-1.22;100.00;99508.19;15259269;19;20238;-48
2023/11/22 18:11:59;;;;;;;6.75;6.05;;;;;;;-1.28;100.00;99522.50;15259950;19;20025;-50
2023/11/22 18:17:27;;;;;;;9.35;8.30;;;;;;;-1.28;100.00;99509.28;15260352;19;20018;-50
2023/11/22 18:22:51;;;;;;;6.95;6.25;;;;;;;-1.25;100.00;99497.72;15260221;19;20383;-52
2023/11/22 18:28:17;;;;;;;8.80;6.80;;;;;;;-1.22;100.00;99496.72;15253780;19;20397;-49
2023/11/22 18:33:46;;;;;;;8.25;7.35;;;;;;;-1.18;100.00;99503.63;15254952;19;20031;-50
2023/11/22 18:39:12;;;;;;;8.98;7.20;;;;;;;-1.18;100.00;99482.47;15255810;19;20023;-49
2023/11/22 18:44:38;;;;;;;9.48;7.05;;;;;;;-1.20;100.00;99460.53;15255173;19;20491;-52
2023/11/22 18:50:06;;;;;;;9.23;8.15;;;;;;;-1.20;100.00;99460.53;15254133;19;21359;-50
2023/11/22 18:55:31;;;;;;;9.65;7.00;;;;;;;-1.21;100.00;99485.25;15256503;19;20014;-53
2023/11/22 19:00:56;;;;;;;6.97;5.80;;;;;;;-1.21;100.00;99450.88;15234943;19;20013;-51
2023/11/22 19:06:23;;;;;;;8.85;5.93;;;;;;;-1.22;100.00;99449.13;15257346;19;20010;-49
2023/11/22 19:11:48;;;;;;;7.10;6.00;;;;;;;-1.21;100.00;99458.78;15271651;19;20665;-49
2023/11/22 19:17:13;;;;;;;6.75;5.53;;;;;;;-1.18;100.00;99451.63;15270961;19;20025;-52
2023/11/22 19:22:41;;;;;;;6.65;5.65;;;;;;;-1.14;100.00;99447.06;15271202;19;20024;-51
2023/11/22 19:28:08;;;;;;;7.53;5.78;;;;;;;-1.11;100.00;99436.34;15269370;19;20482;-51
2023/11/22 19:33:33;;;;;;;7.15;5.88;;;;;;;-1.09;100.00;99418.63;15269938;19;20015;-49
2023/11/22 19:39:01;;;;;;;6.32;5.70;;;;;;;-1.10;100.00;99409.84;15262452;19;20911;-51
2023/11/22 19:44:26;;;;;;;7.40;6.60;;;;;;;-1.09;100.00;99398.34;15265593;19;20057;-48
2023/11/22 19:49:50;;;;;;;7.57;6.25;;;;;;;-1.12;100.00;99406.41;15266027;19;20362;-49
2023/11/22 19:55:20;;;;;;;7.80;7.00;;;;;;;-1.15;100.00;99416.25;15274122;19;20723;-50
2023/11/22 20:00:45;;;;;;;7.70;6.90;;;;;;;-1.17;100.00;99402.22;15271875;19;20017;-48
2023/11/22 20:06:13;;;;;;;9.65;7.55;;;;;;;-1.21;100.00;99404.16;15276272;19;20018;-51
2023/11/22 20:11:40;;;;;;;7.80;6.47;;;;;;;-1.22;100.00;99397.13;15267636;19;20361;-49
2023/11/22 20:17:08;;;;;;;8.45;7.50;;;;;;;-1.22;100.00;99398.91;15274235;19;20695;-51
2023/11/22 20:22:33;;;;;;;9.20;7.57;;;;;;;-1.23;100.00;99405.97;15276766;19;20359;-48
2023/11/22 20:28:01;;;;;;;6.47;5.63;;;;;;;-1.22;100.00;99396.25;15271009;19;20022;-51
2023/11/22 20:33:25;;;;;;;6.80;6.07;;;;;;;-1.17;100.00;99400.44;15276061;19;20042;-50
2023/11/22 20:38:51;;;;;;;7.25;5.55;;;;;;;-1.12;100.00;99381.75;15272353;19;20018;-50
2023/11/22 20:44:19;;;;;;;7.47;5.63;;;;;;;-1.08;100.00;99393.91;14755982;19;10000594;-50
2023/11/22 20:49:46;;;;;;;6.88;6.05;;;;;;;-1.02;100.00;99382.22;15273082;19;20467;-53
2023/11/22 20:55:10;;;;;;;7.85;6.00;;;;;;;-1.01;100.00;99374.25;15276855;19;20018;-48
2023/11/22 21:00:39;;;;;;;7.63;5.80;;;;;;;-1.00;100.00;99365.34;15272097;19;20028;-50
2023/11/22 21:06:03;;;;;;;6.13;5.38;;;;;;;-0.98;100.00;99362.66;15275376;19;20495;-48
2023/11/22 21:11:28;;;;;;;7.18;5.60;;;;;;;-0.97;100.00;99348.50;15270507;19;20027;-50
2023/11/22 21:16:57;;;;;;;7.40;5.80;;;;;;;-0.93;100.00;99350.06;15270274;19;20046;-52
2023/11/22 21:22:23;;;;;;;6.25;5.47;;;;;;;-0.88;100.00;99341.97;15272619;19;20240;-49
2023/11/22 21:27:47;;;;;;;5.97;5.38;;;;;;;-0.86;100.00;99340.09;15271391;19;20022;-49
2023/11/22 21:33:14;;;;;;;6.18;5.57;;;;;;;-0.84;100.00;99340.91;15273838;19;20419;-50
2023/11/22 21:38:33;;;;;;;6.95;6.25;;;;;;;-0.82;100.00;99344.34;15271011;19;20631;-52
2023/11/22 21:43:59;;;;;;;7.18;6.03;;;;;;;-0.80;100.00;99331.91;15271489;19;20018;-48
2023/11/22 21:49:27;;;;;;;6.22;5.35;;;;;;;-0.77;100.00;99339.72;15269533;19;20018;-49
2023/11/22 21:54:51;;;;;;;5.10;4.60;;;;;;;-0.68;100.00;99331.38;15269496;19;20082;-49
2023/11/22 22:00:18;;;;;;;4.90;4.40;;;;;;;-0.57;100.00;99327.38;15269486;19;20066;-49
2023/11/22 22:05:45;;;;;;;5.35;4.40;;;;;;;-0.51;100.00;99320.03;15271310;19;20017;-49
2023/11/22 22:11:10;;;;;;;4.93;4.43;;;;;;;-0.42;100.00;99318.75;15267732;19;20014;-48
2023/11/22 22:16:34;;;;;;;4.93;4.38;;;;;;;-0.36;100.00;99310.53;15270462;19;20022;-52
2023/11/22 22:22:01;;;;;;;4.93;4.30;;;;;;;-0.29;100.00;99302.31;15269728;19;20021;-49
2023/11/22 22:27:27;;;;;;;6.18;4.75;;;;;;;-0.27;100.00;99289.84;15269961;19;20015;-48
2023/11/22 22:32:52;;;;;;;6.47;4.53;;;;;;;-0.26;100.00;99287.13;15269660;19;20010;-48
2023/11/22 22:38:19;;;;;;;5.30;4.80;;;;;;;-0.22;100.00;99287.84;15269380;19;20494;-49
2023/11/22 22:43:44;;;;;;;7.30;5.40;;;;;;;-0.26;100.00;99271.25;15279999;19;20047;-48
2023/11/22 22:49:11;;;;;;;6.18;4.93;;;;;;;-0.30;100.00;99268.81;15277442;19;20014;-50
2023/11/22 22:54:38;;;;;;;5.30;4.80;;;;;;;-0.33;100.00;99278.63;15285130;19;20018;-49
2023/11/22 23:00:07;;;;;;;6.00;4.82;;;;;;;-0.34;100.00;99255.72;15280740;19;20025;-48
2023/11/22 23:05:32;;;;;;;5.93;4.40;;;;;;;-0.31;100.00;99262.66;15282647;19;20037;-48
2023/11/22 23:10:59;;;;;;;4.65;4.13;;;;;;;-0.24;100.00;99253.50;15276979;19;20483;-49
2023/11/22 23:16:24;;;;;;;4.82;4.18;;;;;;;-0.19;100.00;99259.44;15284663;19;20018;-49
2023/11/22 23:21:48;;;;;;;4.38;3.78;;;;;;;-0.14;100.00;99245.97;15280025;19;20442;-48
2023/11/22 23:27:16;;;;;;;5.13;3.88;;;;;;;-0.07;100.00;99238.59;15280075;19;20033;-48
2023/11/22 23:32:42;;;;;;;4.53;3.38;;;;;;;0.01;100.00;99230.28;15282875;19;20010;-46
2023/11/22 23:38:07;;;;;;;3.90;3.03;;;;;;;0.08;100.00;99206.06;15174735;19;2004363;-48
2023/11/22 23:43:36;;;;;;;4.32;3.17;;;;;;;0.17;100.00;99203.88;15281686;19;20097;-45
2023/11/22 23:49:01;;;;;;;3.10;2.80;;;;;;;0.24;100.00;99200.84;15280111;19;20098;-46
2023/11/22 23:54:26;;;;;;;3.08;2.78;;;;;;;0.30;100.00;99178.47;15278397;19;20608;-49
2023/11/22 23:59:54;;;;;;;3.92;3.00;;;;;;;0.34;100.00;99164.16;15279576;19;20014;-47
